createdAt,value
2022-12-23T00:00:28.529Z,67961.84
2022-12-23T00:02:55.333Z,68025.25
2022-12-23T00:05:22.175Z,68007.28
2022-12-23T00:07:48.895Z,67973.41
2022-12-23T00:10:15.648Z,67973.81
2022-12-23T00:13:00.710Z,67988.91
2022-12-23T00:15:27.505Z,67984.63
2022-12-23T00:17:54.161Z,67980.78
2022-12-23T00:20:20.884Z,67956.44
2022-12-23T00:23:05.602Z,67968.41
2022-12-23T00:25:41.272Z,67967.25
2022-12-23T00:28:11.808Z,67959.53
2022-12-23T00:30:50.066Z,68013.66
2022-12-23T00:33:22.249Z,67976.91
2022-12-23T00:35:49.939Z,67965.53
2022-12-23T00:38:17.678Z,67954.09
2022-12-23T00:41:03.001Z,67975.75
2022-12-23T00:43:29.534Z,67964.94
2022-12-23T00:45:56.168Z,67974.03
2022-12-23T00:48:41.107Z,67972.31
2022-12-23T00:51:07.787Z,67940.97
2022-12-23T00:53:34.391Z,67957.63
2022-12-23T00:56:01.006Z,67948.09
2022-12-23T00:58:27.704Z,67988.53
2022-12-23T01:01:13.135Z,67939.81
2022-12-23T01:03:58.626Z,67936.72
2022-12-23T01:06:25.223Z,67971.16
2022-12-23T01:08:51.789Z,67966.88
2022-12-23T01:11:18.500Z,67987.56
2022-12-23T01:13:45.128Z,67962.63
2022-12-23T01:16:17.136Z,67968.03
2022-12-23T01:18:44.728Z,67964.56
2022-12-23T01:21:12.215Z,67983.72
2022-12-23T01:23:38.901Z,68001.50
2022-12-23T01:26:07.317Z,67968.03
2022-12-23T01:28:35.110Z,67979.84
2022-12-23T01:31:04.215Z,67967.47
2022-12-23T01:33:32.295Z,68008.47
2022-12-23T01:36:09.171Z,67946.22
2022-12-23T01:38:35.903Z,67978.31
2022-12-23T01:41:02.515Z,67975.00
2022-12-23T01:43:48.071Z,67953.34
2022-12-23T01:46:15.400Z,67948.34
2022-12-23T01:48:45.409Z,67950.06
2022-12-23T01:51:18.706Z,67967.88
2022-12-23T01:53:50.526Z,67965.75
2022-12-23T01:56:37.297Z,67958.59
2022-12-23T01:59:34.229Z,67971.94
2022-12-23T02:02:20.269Z,67953.97
2022-12-23T02:04:48.736Z,68005.00
2022-12-23T02:07:35.633Z,67956.13
2022-12-23T02:10:03.792Z,67958.41
2022-12-23T02:12:33.302Z,67939.47
2022-12-23T02:15:37.160Z,67993.59
2022-12-23T02:18:22.685Z,67994.56
2022-12-23T02:21:10.820Z,67986.44
2022-12-23T02:23:49.498Z,67985.88
2022-12-23T02:26:28.134Z,67957.66
2022-12-23T02:29:06.683Z,67950.69
2022-12-23T02:31:51.727Z,67914.34
2022-12-23T02:34:26.432Z,67994.41
2022-12-23T02:36:58.810Z,67953.81
2022-12-23T02:39:59.481Z,67959.78
2022-12-23T02:42:33.676Z,67973.91
2022-12-23T02:45:08.430Z,67959.78
2022-12-23T02:47:39.675Z,67929.44
2022-12-23T02:50:12.092Z,67987.44
2022-12-23T02:52:41.643Z,68000.19
2022-12-23T02:55:19.812Z,67999.81
2022-12-23T02:57:50.882Z,67939.13
2022-12-23T03:00:18.405Z,67933.13
2022-12-23T03:02:45.381Z,67974.69
2022-12-23T03:05:26.428Z,67981.25
2022-12-23T03:07:55.522Z,67958.47
2022-12-23T03:10:53.921Z,67929.84
2022-12-23T03:13:47.376Z,67951.91
2022-12-23T03:16:17.081Z,67937.78
2022-12-23T03:18:49.115Z,67953.03
2022-12-23T03:21:34.516Z,67961.56
2022-12-23T03:24:16.752Z,67978.38
2022-12-23T03:26:52.488Z,67935.66
2022-12-23T03:29:26.660Z,67976.66
2022-12-23T03:31:57.249Z,67981.47
2022-12-23T03:34:29.960Z,67995.59
2022-12-23T03:37:00.579Z,67943.59
2022-12-23T03:39:33.065Z,67955.00
2022-12-23T03:42:06.373Z,67952.69
2022-12-23T03:44:37.328Z,67999.44
2022-12-23T03:47:12.119Z,67965.81
2022-12-23T03:49:51.806Z,67978.97
2022-12-23T03:52:24.213Z,67958.69
2022-12-23T03:54:54.766Z,67930.63
2022-12-23T03:57:28.722Z,67932.19
2022-12-23T03:59:55.976Z,67990.19
2022-12-23T04:02:37.876Z,67935.06
2022-12-23T04:05:17.328Z,67927.94
2022-12-23T04:07:51.552Z,67966.22
2022-12-23T04:10:19.498Z,67946.28
2022-12-23T04:12:46.164Z,67941.84
2022-12-23T04:15:13.584Z,67980.91
2022-12-23T04:17:40.443Z,67968.34
2022-12-23T04:20:07.641Z,67937.03
2022-12-23T04:22:34.260Z,67967.38
2022-12-23T04:25:00.800Z,67952.13
2022-12-23T04:27:27.486Z,67959.81
2022-12-23T04:29:54.109Z,67987.88
2022-12-23T04:32:20.850Z,67938.75
2022-12-23T04:34:47.423Z,67975.50
2022-12-23T04:37:14.041Z,67948.25
2022-12-23T04:39:40.628Z,67963.91
2022-12-23T04:42:07.326Z,67973.78
2022-12-23T04:44:33.997Z,67966.22
2022-12-23T04:47:00.750Z,67981.31
2022-12-23T04:49:27.321Z,67934.72
2022-12-23T04:51:53.912Z,67944.56
2022-12-23T04:54:20.552Z,67930.31
2022-12-23T04:56:47.133Z,67933.00
2022-12-23T04:59:13.697Z,67981.72
2022-12-23T05:01:42.396Z,67935.13
2022-12-23T05:04:10.272Z,67949.25
2022-12-23T05:06:37.816Z,67927.59
2022-12-23T05:09:05.505Z,67992.53
2022-12-23T05:11:34.975Z,67951.94
2022-12-23T05:14:05.168Z,67948.06
2022-12-23T05:16:32.176Z,67944.81
2022-12-23T05:18:58.788Z,67925.28
2022-12-23T05:21:25.410Z,67945.19
2022-12-23T05:23:52.255Z,67960.47
2022-12-23T05:26:19.280Z,67944.63
2022-12-23T05:28:45.898Z,67974.00
2022-12-23T05:31:13.658Z,67947.31
2022-12-23T05:33:40.669Z,67925.69
2022-12-23T05:36:07.855Z,67984.06
2022-12-23T05:38:34.665Z,67954.28
2022-12-23T05:41:02.378Z,67957.00
2022-12-23T05:43:29.295Z,67968.22
2022-12-23T05:45:56.038Z,67953.16
2022-12-23T05:48:23.028Z,67908.28
2022-12-23T05:50:53.650Z,67982.50
2022-12-23T05:53:20.908Z,67971.13
2022-12-23T05:55:47.995Z,67974.78
2022-12-23T05:58:14.967Z,67982.91
2022-12-23T06:00:41.689Z,67981.34
2022-12-23T06:03:08.519Z,67974.78
2022-12-23T06:05:37.792Z,67946.56
2022-12-23T06:08:05.106Z,67972.47
2022-12-23T06:10:31.769Z,67968.22
2022-12-23T06:12:58.828Z,67903.28
2022-12-23T06:15:25.536Z,67965.50
2022-12-23T06:17:52.238Z,68014.22
2022-12-23T06:20:20.957Z,67968.78
2022-12-23T06:22:48.155Z,67951.97
2022-12-23T06:25:15.238Z,67979.63
2022-12-23T06:27:41.842Z,67936.91
2022-12-23T06:30:09.041Z,67957.38
2022-12-23T06:32:38.607Z,67956.81
2022-12-23T06:35:06.825Z,67900.97
2022-12-23T06:37:35.722Z,67924.91
2022-12-23T06:40:02.638Z,67908.69
2022-12-23T06:42:29.539Z,67944.28
2022-12-23T06:44:56.191Z,67950.25
2022-12-23T06:47:23.071Z,67979.03
2022-12-23T06:49:49.739Z,67956.25
2022-12-23T06:52:16.574Z,67950.84
2022-12-23T06:54:43.226Z,67976.75
2022-12-23T06:57:09.855Z,67946.00
2022-12-23T06:59:36.581Z,67962.81
2022-12-23T07:02:04.125Z,67984.84
2022-12-23T07:04:31.149Z,67950.84
2022-12-23T07:06:58.777Z,67949.69
2022-12-23T07:09:26.282Z,67967.06
2022-12-23T07:11:53.981Z,67978.47
2022-12-23T07:14:20.945Z,67928.03
2022-12-23T07:16:48.304Z,67909.09
2022-12-23T07:19:15.113Z,67994.13
2022-12-23T07:21:41.884Z,67967.06
2022-12-23T07:24:09.057Z,67937.69
2022-12-23T07:26:36.004Z,67980.00
2022-12-23T07:29:02.724Z,67980.59
2022-12-23T07:31:29.553Z,68018.88
2022-12-23T07:33:56.247Z,68035.09
2022-12-23T07:36:23.237Z,67984.84
2022-12-23T07:38:51.522Z,68024.28
2022-12-23T07:41:18.391Z,68006.91
2022-12-23T07:43:45.426Z,68016.75
2022-12-23T07:46:13.228Z,68003.22
2022-12-23T07:48:41.898Z,67991.81
2022-12-23T07:51:08.874Z,67979.44
2022-12-23T07:53:35.902Z,67977.72
2022-12-23T07:56:02.757Z,68033.38
2022-12-23T07:58:29.541Z,68036.84
2022-12-23T08:01:08.094Z,68052.50
2022-12-23T08:03:35.746Z,68048.63
2022-12-23T08:06:08.593Z,68057.31
2022-12-23T08:08:36.136Z,68145.47
2022-12-23T08:11:05.060Z,68267.22
2022-12-23T08:13:34.498Z,68390.72
2022-12-23T08:16:02.889Z,68509.78
2022-12-23T08:18:31.149Z,68605.06
2022-12-23T08:21:00.291Z,68573.78
2022-12-23T08:23:28.750Z,68468.81
2022-12-23T08:26:07.043Z,68468.81
2022-12-23T08:28:35.301Z,68417.41
2022-12-23T08:31:10.725Z,68516.38
2022-12-23T08:33:39.287Z,68604.13
2022-12-23T08:36:08.271Z,68574.34
2022-12-23T08:38:36.315Z,68627.91
2022-12-23T08:41:08.050Z,68735.56
2022-12-23T08:43:36.148Z,68676.03
2022-12-23T08:46:03.460Z,68658.25
2022-12-23T08:48:30.245Z,68594.47
2022-12-23T08:50:57.013Z,68553.88
2022-12-23T08:53:23.624Z,68613.41
2022-12-23T08:55:50.419Z,68663.28
2022-12-23T08:58:17.100Z,68562.56
2022-12-23T09:00:43.851Z,68592.94
2022-12-23T09:03:10.765Z,68595.03
2022-12-23T09:05:42.247Z,68687.66
2022-12-23T09:08:09.760Z,68737.31
2022-12-23T09:10:43.783Z,68726.69
2022-12-23T09:13:15.016Z,68791.66
2022-12-23T09:15:47.039Z,68760.13
2022-12-23T09:18:13.734Z,68712.00
2022-12-23T09:20:40.481Z,68820.25
2022-12-23T09:23:07.633Z,68954.41
2022-12-23T09:25:36.664Z,68856.59
2022-12-23T09:28:04.694Z,68812.34
2022-12-23T09:30:31.577Z,68822.97
2022-12-23T09:32:58.259Z,68903.22
2022-12-23T09:35:25.084Z,69080.91
2022-12-23T09:37:51.775Z,69237.53
2022-12-23T09:40:21.164Z,69131.00
2022-12-23T09:43:17.400Z,69152.09
2022-12-23T09:46:02.414Z,69060.03
2022-12-23T09:48:36.006Z,69093.09
2022-12-23T09:51:04.238Z,69074.75
2022-12-23T09:53:49.733Z,69213.97
2022-12-23T09:56:19.753Z,69198.31
2022-12-23T09:58:58.955Z,69177.25
2022-12-23T10:01:32.723Z,69231.97
2022-12-23T10:03:59.937Z,69331.19
2022-12-23T10:06:29.177Z,69353.44
2022-12-23T10:09:01.322Z,69263.16
2022-12-23T10:11:53.393Z,69283.28
2022-12-23T10:14:25.013Z,69327.78
2022-12-23T10:17:00.405Z,69339.44
2022-12-23T10:19:46.804Z,69368.28
2022-12-23T10:22:16.568Z,69398.66
2022-12-23T10:24:46.192Z,69524.72
2022-12-23T10:27:39.024Z,69269.88
2022-12-23T10:30:51.295Z,69271.75
2022-12-23T10:33:18.829Z,69265.41
2022-12-23T10:35:48.535Z,69459.41
2022-12-23T10:38:40.272Z,69400.41
2022-12-23T10:41:46.748Z,69406.41
2022-12-23T10:44:13.317Z,69528.28
2022-12-23T10:46:51.783Z,69406.06
2022-12-23T10:49:21.183Z,69342.47
2022-12-23T10:51:55.342Z,69294.94
2022-12-23T10:54:34.257Z,69202.47
2022-12-23T10:57:01.863Z,69305.38
2022-12-23T10:59:31.911Z,69375.56
2022-12-23T11:02:13.457Z,69318.72
2022-12-23T11:04:46.350Z,69293.16
2022-12-23T11:07:43.520Z,69246.75
2022-12-23T11:10:07.482Z,69145.41
2022-12-23T11:12:42.476Z,68958.56
2022-12-23T11:15:33.989Z,68882.38
2022-12-23T11:18:04.693Z,68867.66
2022-12-23T11:20:32.850Z,68810.78
2022-12-23T11:23:02.332Z,68822.00
2022-12-23T11:25:44.235Z,68686.25
2022-12-23T11:28:10.777Z,68649.50
2022-12-23T11:30:57.325Z,68572.53
2022-12-23T11:33:31.690Z,68540.03
2022-12-23T11:36:06.750Z,68512.97
2022-12-23T11:38:35.643Z,68486.84
2022-12-23T11:41:05.257Z,68644.84
2022-12-23T11:43:34.066Z,68506.38
2022-12-23T11:46:24.060Z,68430.59
2022-12-23T11:49:05.487Z,68511.81
2022-12-23T11:51:32.287Z,68536.16
2022-12-23T11:54:03.181Z,68576.78
2022-12-23T11:56:39.012Z,68591.47
2022-12-23T11:59:26.463Z,68640.22
2022-12-23T12:01:53.866Z,68644.09
2022-12-23T12:04:24.285Z,68666.72
2022-12-23T12:06:56.394Z,68560.72
2022-12-23T12:09:24.963Z,68544.28
2022-12-23T12:12:03.769Z,68521.88
2022-12-23T12:14:54.579Z,68520.72
2022-12-23T12:17:45.614Z,68573.13
2022-12-23T12:20:22.480Z,68661.50
2022-12-23T12:23:11.755Z,68595.38
2022-12-23T12:25:44.320Z,68543.53
2022-12-23T12:28:18.186Z,68606.19
2022-12-23T12:30:57.862Z,68570.59
2022-12-23T12:33:36.098Z,68579.31
2022-12-23T12:36:27.015Z,68480.88
2022-12-23T12:38:57.019Z,68465.41
2022-12-23T12:41:33.253Z,68436.41
2022-12-23T12:44:37.421Z,68372.56
2022-12-23T12:47:36.234Z,68387.66
2022-12-23T12:50:31.320Z,68388.22
2022-12-23T12:53:05.918Z,68449.94
2022-12-23T12:55:37.883Z,68473.53
2022-12-23T12:58:04.336Z,68491.31
2022-12-23T13:00:44.390Z,68548.75
2022-12-23T13:03:32.187Z,68719.00
2022-12-23T13:06:29.904Z,68720.75
2022-12-23T13:09:36.590Z,68633.50
2022-12-23T13:12:23.035Z,68682.84
2022-12-23T13:14:49.636Z,68901.97
2022-12-23T13:17:33.615Z,69007.25
2022-12-23T13:20:09.191Z,69185.03
2022-12-23T13:22:37.331Z,69308.13
2022-12-23T13:25:29.542Z,69461.31
2022-12-23T13:28:00.934Z,69160.91
2022-12-23T13:30:36.495Z,69229.19
2022-12-23T13:33:09.633Z,69243.31
2022-12-23T13:36:04.954Z,69467.22
2022-12-23T13:39:18.176Z,69462.97
2022-12-23T13:41:51.618Z,69367.59
2022-12-23T13:44:20.742Z,69108.72
2022-12-23T13:47:21.345Z,69094.56
2022-12-23T13:49:54.036Z,69033.47
2022-12-23T13:52:30.367Z,69195.97
2022-12-23T13:54:57.099Z,69351.31
2022-12-23T13:57:44.957Z,69451.66
2022-12-23T14:00:17.585Z,69410.09
2022-12-23T14:03:02.726Z,69526.25
2022-12-23T14:05:33.901Z,69854.94
2022-12-23T14:08:05.118Z,69950.63
2022-12-23T14:10:33.311Z,69898.22
2022-12-23T14:13:05.727Z,69916.50
2022-12-23T14:15:51.967Z,69923.53
2022-12-23T14:18:39.114Z,69791.22
2022-12-23T14:21:42.495Z,69309.25
2022-12-23T14:24:24.062Z,69051.03
2022-12-23T14:27:21.533Z,68902.00
2022-12-23T14:29:51.021Z,68822.25
2022-12-23T14:32:26.687Z,68799.44
2022-12-23T14:35:18.646Z,68700.75
2022-12-23T14:38:05.075Z,68738.09
2022-12-23T14:40:37.710Z,68791.09
2022-12-23T14:43:45.507Z,68736.34
2022-12-23T14:46:35.459Z,68739.41
2022-12-23T14:49:37.049Z,68693.16
2022-12-23T14:51:51.060Z,68623.31
2022-12-23T14:54:36.642Z,68488.47
2022-12-23T14:57:19.245Z,68437.59
2022-12-23T15:00:01.415Z,68333.50
2022-12-23T15:02:36.466Z,68287.47
2022-12-23T15:05:04.692Z,68333.88
2022-12-23T15:07:35.252Z,68472.03
2022-12-23T15:10:05.838Z,68914.69
2022-12-23T15:12:39.441Z,69599.75
2022-12-23T15:15:19.353Z,69738.50
2022-12-23T15:17:48.062Z,69687.63
2022-12-23T15:20:22.974Z,69671.94
2022-12-23T15:22:50.666Z,69454.59
2022-12-23T15:25:28.785Z,69096.63
2022-12-23T15:28:01.588Z,68767.09
2022-12-23T15:30:34.146Z,68430.63
2022-12-23T15:33:02.576Z,68194.97
2022-12-23T15:35:33.456Z,68112.00
2022-12-23T15:38:01.946Z,68037.72
2022-12-23T15:40:34.652Z,68066.91
2022-12-23T15:43:02.617Z,68093.25
2022-12-23T15:45:36.069Z,68014.91
2022-12-23T15:48:04.610Z,68038.06
2022-12-23T15:50:40.487Z,68035.53
2022-12-23T15:53:10.047Z,68021.03
2022-12-23T15:55:39.826Z,68078.88
2022-12-23T15:58:06.731Z,68002.66
2022-12-23T16:00:50.737Z,68052.38
2022-12-23T16:03:37.595Z,68008.84
2022-12-23T16:06:10.617Z,68034.41
2022-12-23T16:08:38.001Z,68059.16
2022-12-23T16:11:13.933Z,68042.91
2022-12-23T16:13:58.048Z,68020.09
2022-12-23T16:16:43.246Z,68054.56
2022-12-23T16:19:49.052Z,68048.16
2022-12-23T16:22:30.191Z,68031.72
2022-12-23T16:24:56.773Z,68047.78
2022-12-23T16:27:34.743Z,68034.41
2022-12-23T16:30:04.880Z,67990.91
2022-12-23T16:32:31.730Z,68055.34
2022-12-23T16:35:10.350Z,68047.22
2022-12-23T16:37:36.987Z,68049.53
2022-12-23T16:40:13.307Z,68026.28
2022-12-23T16:42:40.067Z,68018.59
2022-12-23T16:45:07.402Z,68047.97
2022-12-23T16:47:34.013Z,67998.06
2022-12-23T16:50:00.719Z,68026.28
2022-12-23T16:52:27.435Z,67975.81
2022-12-23T16:54:54.072Z,68010.47
2022-12-23T16:57:20.657Z,68022.44
2022-12-23T16:59:47.645Z,68029.41
2022-12-23T17:02:21.453Z,68035.00
2022-12-23T17:04:48.207Z,68032.88
2022-12-23T17:07:14.943Z,68050.28
2022-12-23T17:09:41.746Z,68048.53
2022-12-23T17:12:10.196Z,68026.88
2022-12-23T17:14:37.020Z,68050.66
2022-12-23T17:17:13.806Z,68022.44
2022-12-23T17:19:40.556Z,68036.75
2022-12-23T17:22:13.175Z,68014.69
2022-12-23T17:24:40.838Z,68043.72
2022-12-23T17:27:16.571Z,68055.69
2022-12-23T17:29:43.506Z,68039.44
2022-12-23T17:32:16.566Z,68008.91
2022-12-23T17:34:43.402Z,68046.44
2022-12-23T17:37:19.435Z,68058.78
2022-12-23T17:39:47.429Z,68006.19
2022-12-23T17:42:25.433Z,68049.13
2022-12-23T17:44:52.698Z,68017.78
2022-12-23T17:47:22.375Z,68055.13
2022-12-23T17:49:49.770Z,67994.97
2022-12-23T17:52:21.517Z,68022.06
2022-12-23T17:54:50.125Z,68039.44
2022-12-23T17:57:23.380Z,68046.22
2022-12-23T17:59:52.115Z,68059.38
2022-12-23T18:02:29.519Z,68002.34
2022-12-23T18:04:56.494Z,68035.00
2022-12-23T18:07:23.292Z,68041.41
2022-12-23T18:09:50.924Z,68035.97
2022-12-23T18:12:35.379Z,68055.53
2022-12-23T18:15:03.026Z,68013.72
2022-12-23T18:17:29.583Z,68012.59
2022-12-23T18:19:56.212Z,68021.09
2022-12-23T18:22:25.980Z,68008.16
2022-12-23T18:24:58.939Z,68077.41
2022-12-23T18:27:26.006Z,68001.59
2022-12-23T18:29:52.762Z,68029.81
2022-12-23T18:32:22.523Z,68002.72
2022-12-23T18:34:50.131Z,68038.09
2022-12-23T18:37:17.536Z,68043.72
2022-12-23T18:39:44.432Z,68055.69
2022-12-23T18:42:16.394Z,68004.25
2022-12-23T18:44:44.966Z,68079.69
2022-12-23T18:47:12.917Z,68036.91
2022-12-23T18:49:40.119Z,68074.81
2022-12-23T18:52:12.670Z,68025.09
2022-12-23T18:54:40.094Z,68060.31
2022-12-23T18:57:07.133Z,68087.81
2022-12-23T18:59:37.548Z,68072.13
2022-12-23T19:02:04.837Z,68041.75
2022-12-23T19:04:31.762Z,68053.75
2022-12-23T19:06:58.468Z,68057.03
2022-12-23T19:09:25.788Z,68053.75
2022-12-23T19:11:53.877Z,68038.63
2022-12-23T19:14:22.310Z,68038.06
2022-12-23T19:16:51.963Z,68042.31
2022-12-23T19:19:20.001Z,67994.75
2022-12-23T19:21:46.723Z,68081.97
2022-12-23T19:24:14.206Z,68011.56
2022-12-23T19:26:40.877Z,68028.38
2022-12-23T19:29:08.539Z,68039.81
2022-12-23T19:31:35.284Z,68055.09
2022-12-23T19:34:02.218Z,68030.13
2022-12-23T19:36:29.106Z,67988.53
2022-12-23T19:38:57.056Z,68059.91
2022-12-23T19:41:23.830Z,68085.06
2022-12-23T19:43:50.815Z,68027.03
2022-12-23T19:46:17.661Z,68010.78
2022-12-23T19:49:19.480Z,68034.72
2022-12-23T19:51:47.140Z,68045.56
2022-12-23T19:54:13.951Z,68028.16
2022-12-23T19:56:40.645Z,68073.63
2022-12-23T19:59:07.452Z,68066.47
2022-12-23T20:01:34.190Z,68045.22
2022-12-23T20:04:00.931Z,68030.94
2022-12-23T20:06:33.448Z,68051.44
2022-12-23T20:09:04.187Z,68042.16
2022-12-23T20:11:36.925Z,68058.41
2022-12-23T20:14:04.212Z,68037.13
2022-12-23T20:16:31.282Z,68021.47
2022-12-23T20:18:58.121Z,68026.28
2022-12-23T20:21:24.813Z,68058.41
2022-12-23T20:23:51.722Z,68011.78
2022-12-23T20:26:19.375Z,68062.25
2022-12-23T20:28:46.645Z,68047.19
2022-12-23T20:31:31.553Z,68056.44
2022-12-23T20:33:59.114Z,68030.94
2022-12-23T20:36:32.381Z,68073.47
2022-12-23T20:38:59.596Z,68057.59
2022-12-23T20:41:29.165Z,68039.81
2022-12-23T20:44:33.081Z,68038.25
2022-12-23T20:46:42.750Z,68095.13
2022-12-23T20:49:09.533Z,68052.38
2022-12-23T20:51:37.174Z,68062.63
2022-12-23T20:54:03.983Z,68049.25
2022-12-23T20:56:31.637Z,68027.59
2022-12-23T20:58:59.436Z,68027.03
2022-12-23T21:01:35.433Z,68067.06
2022-12-23T21:04:05.404Z,68031.84
2022-12-23T21:06:32.771Z,68075.78
2022-12-23T21:09:00.648Z,68005.34
2022-12-23T21:11:29.513Z,68027.03
2022-12-23T21:14:01.132Z,68023.72
2022-12-23T21:16:32.752Z,68083.50
2022-12-23T21:18:59.857Z,68034.72
2022-12-23T21:21:28.192Z,68042.47
2022-12-23T21:23:56.941Z,68072.84
2022-12-23T21:26:26.231Z,68069.16
2022-12-23T21:28:55.164Z,68059.88
2022-12-23T21:31:23.459Z,68092.38
2022-12-23T21:33:51.428Z,68037.63
2022-12-23T21:36:20.902Z,68029.69
2022-12-23T21:38:48.713Z,68071.88
2022-12-23T21:41:18.464Z,68033.94
2022-12-23T21:43:45.400Z,68002.81
2022-12-23T21:46:14.892Z,68053.88
2022-12-23T21:48:42.932Z,68053.31
2022-12-23T21:51:17.745Z,68080.56
2022-12-23T21:53:46.466Z,68005.69
2022-12-23T21:56:16.102Z,68071.88
2022-12-23T21:58:43.980Z,68016.53
2022-12-23T22:01:14.202Z,68062.19
2022-12-23T22:03:42.595Z,68044.78
2022-12-23T22:06:15.012Z,68089.66
2022-12-23T22:08:42.793Z,68045.19
2022-12-23T22:11:18.963Z,68015.38
2022-12-23T22:13:46.294Z,68055.44
2022-12-23T22:16:16.225Z,68047.31
2022-12-23T22:18:43.615Z,68040.16
2022-12-23T22:21:13.416Z,68060.09
2022-12-23T22:23:40.102Z,68054.66
2022-12-23T22:26:07.864Z,68017.34
2022-12-23T22:28:36.779Z,68034.72
2022-12-23T22:31:32.766Z,68052.16
2022-12-23T22:33:59.439Z,68050.59
2022-12-23T22:36:26.573Z,68072.25
2022-12-23T22:38:55.861Z,68037.06
2022-12-23T22:41:23.888Z,68061.44
2022-12-23T22:43:50.733Z,68071.88
2022-12-23T22:46:18.489Z,68052.31
2022-12-23T22:48:45.951Z,68050.19
2022-12-23T22:51:21.419Z,68029.50
2022-12-23T22:53:48.421Z,68053.88
2022-12-23T22:56:16.585Z,68071.28
2022-12-23T22:58:43.282Z,68072.66
2022-12-23T23:01:21.466Z,68031.06
2022-12-23T23:03:51.163Z,68070.91
2022-12-23T23:06:18.807Z,68049.25
2022-12-23T23:08:45.538Z,68040.56
2022-12-23T23:11:12.308Z,68011.91
2022-12-23T23:13:38.887Z,68072.66
2022-12-23T23:16:05.797Z,68066.09
2022-12-23T23:18:32.526Z,68069.19
2022-12-23T23:20:59.941Z,68060.69
2022-12-23T23:23:26.614Z,68082.34
2022-12-23T23:25:53.272Z,68080.59
2022-12-23T23:28:19.963Z,68080.03
2022-12-23T23:30:46.783Z,68031.28
2022-12-23T23:33:13.508Z,68028.16
2022-12-23T23:35:40.522Z,68053.53
2022-12-23T23:38:07.832Z,68015.03
2022-12-23T23:40:34.570Z,68062.22
2022-12-23T23:43:01.329Z,68054.09
2022-12-23T23:45:28.384Z,68034.41
2022-12-23T23:47:55.337Z,68045.22
2022-12-23T23:50:22.706Z,68068.63
2022-12-23T23:52:49.302Z,68039.81
2022-12-23T23:55:16.083Z,68065.72
2022-12-23T23:57:42.704Z,68063.59
